Cannon Air Force Base
KCVS : now visible

Airfield :











YOU CAN JOIN US ON...

 
LOGIN :

Register | Disclaimer

   EN    FR    IT 

 









Legend :    VFR   Marginal VFR   IFR   Intensive IFR   Very Intensive IFR
Visi :
Ceiling :
>= 8 km
>= 3000ft
5 to 8 km
1000 to 3000 ft
1500m to 5 km
500 to 1000 ft
800 to 1500m
200 to 500 ft
< 800m
< 200 ft
Symbols :   Thunderstorms  Fog  Heavy snow  Heavy precipitations  Wind > 20 kt






- Airport Elevation : 4295 ft


KCVS - Cannon Air Force Base

CURRENT METAR :
  • 162058Z AUTO 25009KT 10SM FEW180 20/M03 A2996 RMK AO2 SLP120 T02041033 57025 $

EXPIRED METARs :
  • 161958Z AUTO 24013KT 10SM SCT190 19/M03 A2998 RMK AO2 SLP127 T01941035 $
  • 161858Z AUTO 26011KT 10SM FEW190 18/M03 A3001 RMK AO2 SLP138 T01831032 $

TAF TAF KCVS
Valid from the 16 at 18:00 until the 18 at 00:00 UTC


161802Z 1618/1724 23014KT 9999 SCT200 QNH2998INS
BECMG 1620/1621 24008KT 9999 FEW180 QNH2999INS
BECMG 1705/1706 31006KT 9999 SCT140 QNH3007INS
BECMG 1711/1712 02012G20KT 9999 SKC 520052 QNH3016INS
BECMG 1717/1718 02008KT 9999 SKC QNH3004INS WND VRB06KT AFT 1722 TX19/1621Z TN02/1713Z



MET'MAP, your aeronautical weather chart ! - Copyright ORBIFLY December 2007 - Disclaimer

ORBIFLY MET'MAP TEAM :

Programming & Development : Alexandra Zaïnal
Concept & Development : Baudouin d'Aumeries
Co-Development & Prog : Marc-Olivier Méhu
Technical & hardware support : Manuel Goepfert

Contact : metmap@orbifly.com




SOURCES & CREDITS :

   NOAA       Earth
Advisory